x

South Hatteras - 225 South Of Cape Hatteras (41002) Wave Buoy

5:50 - Fri 27th Feb 2015 All times are EST. -5 hours from GMT.

  • Sig Wave height 11.2ft
  • Swell Direction
  • Peak Period 11s
  • Average Period 8s
  • Wind
    20mph, 25mph gusts
  • Sea Temp 70°f
  • Aire Temp 63°f
  • Sea Pressure 1025mb
  • South Hatteras - 225 South Of Cape Hatteras
  • South Hatteras - 225 South Of Cape Hatteras

More Historic Weather Station data

Upgrade to MSW Pro to gain access to the past 30 days of data for over 8000 Wavebouys and Weather Stations around the globe.

Join Pro

Comparision Forecast

View Surf forecast
   
vie 02/27 5:50 11ft 11s 8s 20 25 mph 1025mb 70f 63f
4:50 10ft 11s 8s 20 27 mph 1024.5mb 70f 63f
3:50 11ft 9s 8s 20 25 mph 1023.7mb 70f 63f
2:50 9.5ft 11s 8s 18 25 mph 1023.4mb 70f 63f
1:50 8ft 11s 7s 18 22 mph 1022.8mb 70f 63f
12:50 9ft 10s 8s 13 18 mph 1023.1mb 70f 64f
11:50 9ft 11s 8s 11 16 mph 1023.2mb 70f 64f
10:50 8.5ft 11s 8s 11 18 mph 1023.3mb 70f 63f
9:50 9.5ft 11s 8s 13 18 mph 1022.9mb 70f 62f
8:50 8ft 11s 8s 13 18 mph 1022.3mb 70f 63f
7:50 8ft 8s 7s 11 16 mph 1021.8mb 70f 62f
6:50 8ft 8s 7s 13 18 mph 1020.6mb 70f 62f
5:50 9.5ft 8s 7s 13 18 mph 1019.5mb 70f 62f
4:50 8.5ft 8s 7s 13 18 mph 1018.7mb 70f 62f
3:50 9ft 8s 7s 13 18 mph 1017.6mb 70f 62f
2:50 8.5ft 9s 7s 13 18 mph 1017.4mb 70f 62f
1:50 8.5ft 9s 7s 13 18 mph 1017mb 70f 62f
12:50 9ft 9s 7s 16 20 mph 1017.1mb 70f 62f
jue 02/26 11:50 9ft 10s 7s 16 22 mph 1016.9mb 70f 62f
10:50 9.5ft 10s 7s 16 20 mph 1016.5mb 70f 62f
9:50 10ft 10s 7s 13 18 mph 1016mb 70f 62f
8:50 10ft 10s 7s 18 20 mph 1015.1mb 70f 63f
7:50 13ft 10s 8s 18 20 mph 1014.4mb 70f 64f
6:50 13.5ft 11s 8s 18 27 mph 1013.3mb 70f 64f
5:50 14ft 9s 7s 20 27 mph 1011.9mb 70f 64f
4:50 15ft 11s 8s 22 29 mph 1010.3mb 70f 66f
3:50 15ft 11s 7s 25 29 mph 1008.9mb 70f 67f
2:50 13.5ft 10s 7s 25 31 mph 1007.9mb 71f 68f
1:50 15ft 9s 7s 25 31 mph 1007.3mb 71f 69f
12:50 14.5ft 10s 7s 25 29 mph 1006.7mb 71f 70f
11:50 15ft 10s 7s 31 36 mph 1006.4mb 71f 68f
10:50 14ft 9s 7s 34 43 mph 1005.3mb 71f 74f
9:50 16ft 8s 7s 38 47 mph 1005.2mb 71f 74f
8:50 14.5ft 8s 7s 36 45 mph 1004.3mb 71f 74f
7:50 13.5ft 8s 6s 43 49 mph 1003mb 71f 74f
6:50 11.5ft 7s 6s 40 49 mph 1002.7mb 71f 74f
5:50 9.5ft 6s 6s 38 47 mph 1002.6mb 71f 73f
4:50 9ft 6s 6s 36 43 mph 1003.5mb 71f 73f
3:50 8ft 6s 6s 34 43 mph 1004.2mb 71f 73f
2:50 8ft 6s 6s 31 38 mph 1005.4mb 71f 72f
1:50 7.5ft 11s 6s 29 36 mph 1006.2mb 71f 72f
12:50 7ft 11s 6s 29 38 mph 1007mb 71f 71f
mié 02/25 11:50 7ft 10s 6s 25 31 mph 1008.6mb 71f 70f
10:50 6ft 10s 6s 22 29 mph 1009.8mb 71f 69f
9:50 6ft 8s 6s 25 29 mph 1010.8mb 71f 67f
8:50 6ft 8s 7s 20 22 mph 1012mb 71f 66f
7:50 6ft 9s 7s 16 20 mph 1012.8mb 71f 65f
6:50 6ft 8s 7s 11 18 mph 1013.2mb 71f 64f
5:50 6ft 7s 7s 7 11 mph 1013.6mb 71f 63f
4:50 6.5ft 8s 7s  -  4 mph 1013.9mb 71f 62f
3:50 6.5ft 8s 6s 4 9 mph 1014.1mb 71f 61f
2:50 7ft 8s 6s 7 11 mph 1014.3mb 70f 62f
1:50 7ft 9s 7s 9 13 mph 1014.5mb 70f 61f
12:50 7ft 8s 6s 9 13 mph 1014.2mb 70f 61f
11:50 7.5ft 8s 7s 11 16 mph 1014.9mb 70f 61f
10:50 7.5ft 8s 7s 13 20 mph 1015.2mb 70f 61f
9:50 7.5ft 8s 6s 16 20 mph 1014.9mb 70f 61f
8:50 7.5ft 8s 6s 18 25 mph 1014.4mb 70f 61f
7:50 8ft 8s 6s 18 25 mph 1013.7mb 70f 62f
6:50 8ft 8s 6s 20 25 mph 1012.6mb 70f 62f
5:50 8ft 8s 6s 22 27 mph 1011.6mb 70f 63f
4:50 8ft 8s 6s 27 31 mph 1010.7mb 70f 63f
3:50 9.5ft 7s 6s 27 31 mph 1010mb 70f 64f
2:50 10ft 8s 6s 29 36 mph 1009.9mb 70f 64f
1:50 10ft 7s 6s 29 34 mph 1009.5mb 70f 64f
12:50 10.5ft 6s 6s 31 38 mph 1008.8mb 70f 65f
mar 02/24 11:50 10.5ft 6s 6s 31 40 mph 1008.1mb 70f 67f
10:50 10.5ft 7s 6s 36 43 mph 1007mb 70f 68f
9:50 10ft 7s 6s 38 45 mph 1006.3mb 70f 71f
8:50 9ft 6s 6s 34 38 mph 1005.8mb 70f 71f
7:50 9ft 10s 6s 29 36 mph 1005.9mb 70f 70f
6:50 8ft 10s 7s 29 38 mph 1006.9mb 69f 69f
5:50 9ft 10s 7s 27 34 mph 1007.7mb 69f 67f
4:50 9ft 10s 7s 27 34 mph 1008.4mb 69f 67f
3:50 9ft 10s 7s 22 27 mph 1009.9mb 69f 65f
2:50 10ft 10s 8s 22 29 mph 1011.8mb 70f 64f
1:50 9ft 11s 7s 20 25 mph 1013.2mb 70f 63f
12:50 10ft 10s 7s 18 22 mph 1014.9mb 70f 63f
11:50 11ft 10s 8s 20 22 mph 1016.3mb 70f 61f
10:50 12ft 11s 8s 16 20 mph 1018.7mb 69f 61f
9:50 11.5ft 10s 8s 16 22 mph 1018.6mb 69f 60f
8:50 13ft 10s 8s 16 20 mph 1019.6mb 68f 60f
7:50 13ft 11s 8s 18 20 mph 1019.4mb 68f 59f
6:50 12ft 10s 7s 18 25 mph 1018.7mb 68f 60f
5:50 14.5ft 10s 8s 22 27 mph 1018.8mb 68f 58f
4:50 14.5ft 10s 8s 20 25 mph 1018.7mb 68f 60f
3:50 15ft 10s 8s 25 31 mph 1018.2mb 68f 58f
2:50 15ft 11s 8s 27 34 mph 1018.1mb 68f 60f
1:50 14.5ft 10s 8s 27 31 mph 1018.1mb 69f 60f
12:50 13ft 9s 7s 34 38 mph 1018.1mb 69f 60f
lun 02/23 11:50 9.5ft 7s 6s 29 36 mph 1018.1mb 69f 62f